sensor_id;sensor_type;location;lat;lon;timestamp;pressure;altitude;pressure_sealevel;temperature;humidity
929;BME280;451;47.988;7.842;2024-03-07T00:06:42;98953.78;;;5.88;100.00
929;BME280;451;47.988;7.842;2024-03-07T00:15:47;98921.81;;;5.75;100.00
929;BME280;451;47.988;7.842;2024-03-07T00:24:50;98947.09;;;5.95;100.00
929;BME280;451;47.988;7.842;2024-03-07T00:33:55;98943.84;;;6.03;100.00
929;BME280;451;47.988;7.842;2024-03-07T00:42:59;98933.81;;;5.98;100.00
929;BME280;451;47.988;7.842;2024-03-07T00:52:03;98936.94;;;6.23;100.00
929;BME280;451;47.988;7.842;2024-03-07T01:01:07;98935.72;;;5.96;100.00
929;BME280;451;47.988;7.842;2024-03-07T01:10:12;98926.03;;;5.87;100.00
929;BME280;451;47.988;7.842;2024-03-07T01:19:15;98908.03;;;5.84;100.00
929;BME280;451;47.988;7.842;2024-03-07T01:28:20;98898.88;;;5.90;100.00
929;BME280;451;47.988;7.842;2024-03-07T01:37:24;98900.00;;;5.76;100.00
929;BME280;451;47.988;7.842;2024-03-07T01:46:29;98872.41;;;5.74;100.00
929;BME280;451;47.988;7.842;2024-03-07T01:55:33;98873.50;;;5.71;100.00
929;BME280;451;47.988;7.842;2024-03-07T02:04:38;98857.31;;;5.77;100.00
929;BME280;451;47.988;7.842;2024-03-07T02:13:44;98832.47;;;5.73;100.00
929;BME280;451;47.988;7.842;2024-03-07T02:22:50;98835.06;;;5.73;100.00
929;BME280;451;47.988;7.842;2024-03-07T02:31:53;98827.13;;;5.75;100.00
929;BME280;451;47.988;7.842;2024-03-07T02:40:58;98823.41;;;5.77;100.00
929;BME280;451;47.988;7.842;2024-03-07T02:50:02;98819.16;;;5.76;100.00
929;BME280;451;47.988;7.842;2024-03-07T02:59:07;98802.66;;;5.76;100.00
929;BME280;451;47.988;7.842;2024-03-07T03:08:10;98790.88;;;5.81;100.00
929;BME280;451;47.988;7.842;2024-03-07T03:17:17;98772.66;;;5.51;100.00
929;BME280;451;47.988;7.842;2024-03-07T03:26:20;98716.88;;;5.02;100.00
929;BME280;451;47.988;7.842;2024-03-07T03:35:25;98785.66;;;5.20;100.00
929;BME280;451;47.988;7.842;2024-03-07T03:44:28;98772.72;;;5.09;100.00
929;BME280;451;47.988;7.842;2024-03-07T03:53:33;98770.81;;;5.11;100.00
929;BME280;451;47.988;7.842;2024-03-07T04:02:36;98776.16;;;4.89;100.00
929;BME280;451;47.988;7.842;2024-03-07T04:11:44;98767.94;;;4.73;100.00
929;BME280;451;47.988;7.842;2024-03-07T04:20:48;98761.00;;;4.62;100.00
929;BME280;451;47.988;7.842;2024-03-07T04:29:53;98767.38;;;4.37;100.00
929;BME280;451;47.988;7.842;2024-03-07T04:38:56;98771.19;;;4.33;100.00
929;BME280;451;47.988;7.842;2024-03-07T04:48:01;98756.16;;;4.05;100.00
929;BME280;451;47.988;7.842;2024-03-07T04:57:04;98752.91;;;4.13;100.00
929;BME280;451;47.988;7.842;2024-03-07T05:06:09;98752.03;;;4.34;100.00
929;BME280;451;47.988;7.842;2024-03-07T05:15:12;98749.66;;;4.31;100.00
929;BME280;451;47.988;7.842;2024-03-07T05:24:17;98747.88;;;3.89;100.00
929;BME280;451;47.988;7.842;2024-03-07T05:33:21;98746.97;;;3.79;100.00
929;BME280;451;47.988;7.842;2024-03-07T05:42:26;98749.34;;;3.71;100.00
929;BME280;451;47.988;7.842;2024-03-07T05:51:31;98758.81;;;3.38;100.00
929;BME280;451;47.988;7.842;2024-03-07T06:00:36;98761.91;;;3.43;100.00
929;BME280;451;47.988;7.842;2024-03-07T06:09:39;98751.97;;;3.37;100.00
929;BME280;451;47.988;7.842;2024-03-07T06:18:45;98753.97;;;3.45;100.00
929;BME280;451;47.988;7.842;2024-03-07T06:27:50;98757.81;;;3.95;100.00
929;BME280;451;47.988;7.842;2024-03-07T06:36:55;98701.03;;;4.00;100.00
929;BME280;451;47.988;7.842;2024-03-07T06:45:59;98781.91;;;4.72;100.00
929;BME280;451;47.988;7.842;2024-03-07T06:55:05;98775.44;;;5.08;100.00
929;BME280;451;47.988;7.842;2024-03-07T07:04:11;98782.72;;;5.35;100.00
929;BME280;451;47.988;7.842;2024-03-07T07:13:18;98746.94;;;5.37;100.00
929;BME280;451;47.988;7.842;2024-03-07T07:22:22;98763.22;;;5.90;100.00
929;BME280;451;47.988;7.842;2024-03-07T07:31:27;98757.50;;;6.15;100.00
929;BME280;451;47.988;7.842;2024-03-07T07:40:31;98750.09;;;6.59;100.00
929;BME280;451;47.988;7.842;2024-03-07T07:49:37;98745.94;;;7.04;100.00
929;BME280;451;47.988;7.842;2024-03-07T07:58:40;98736.50;;;7.67;100.00
929;BME280;451;47.988;7.842;2024-03-07T08:07:48;98726.50;;;7.07;100.00
929;BME280;451;47.988;7.842;2024-03-07T08:16:52;98712.72;;;7.51;100.00
929;BME280;451;47.988;7.842;2024-03-07T08:25:58;98709.81;;;7.82;100.00
929;BME280;451;47.988;7.842;2024-03-07T08:35:02;98704.69;;;6.88;100.00
929;BME280;451;47.988;7.842;2024-03-07T08:44:10;98679.19;;;7.37;100.00
929;BME280;451;47.988;7.842;2024-03-07T08:53:15;98690.53;;;6.81;100.00
929;BME280;451;47.988;7.842;2024-03-07T09:02:24;98704.47;;;6.72;100.00
929;BME280;451;47.988;7.842;2024-03-07T09:11:28;98704.91;;;7.14;100.00
929;BME280;451;47.988;7.842;2024-03-07T09:20:34;98698.53;;;7.81;100.00
929;BME280;451;47.988;7.842;2024-03-07T09:29:39;98705.06;;;7.95;100.00
929;BME280;451;47.988;7.842;2024-03-07T09:38:44;98702.41;;;8.22;100.00
929;BME280;451;47.988;7.842;2024-03-07T09:47:50;98675.53;;;8.20;100.00
929;BME280;451;47.988;7.842;2024-03-07T09:56:58;98692.72;;;8.76;100.00
929;BME280;451;47.988;7.842;2024-03-07T10:06:05;98666.97;;;8.97;100.00
929;BME280;451;47.988;7.842;2024-03-07T10:15:13;98673.69;;;8.30;100.00
929;BME280;451;47.988;7.842;2024-03-07T10:24:24;98658.16;;;9.40;100.00
929;BME280;451;47.988;7.842;2024-03-07T10:33:29;98656.91;;;9.52;100.00
929;BME280;451;47.988;7.842;2024-03-07T10:42:37;98622.72;;;8.42;100.00
929;BME280;451;47.988;7.842;2024-03-07T10:51:46;98625.56;;;8.49;100.00
929;BME280;451;47.988;7.842;2024-03-07T11:01:05;98652.88;;;8.46;100.00
929;BME280;451;47.988;7.842;2024-03-07T11:10:16;98669.59;;;8.97;100.00
929;BME280;451;47.988;7.842;2024-03-07T11:19:26;98655.06;;;9.37;100.00
929;BME280;451;47.988;7.842;2024-03-07T11:28:33;98620.06;;;9.78;100.00
929;BME280;451;47.988;7.842;2024-03-07T11:37:40;98633.72;;;10.79;97.40
929;BME280;451;47.988;7.842;2024-03-07T11:46:47;98617.34;;;11.16;93.87
929;BME280;451;47.988;7.842;2024-03-07T11:55:51;98617.16;;;10.05;93.78
929;BME280;451;47.988;7.842;2024-03-07T12:04:58;98610.53;;;10.82;94.29
929;BME280;451;47.988;7.842;2024-03-07T12:14:07;98591.72;;;11.10;89.93
929;BME280;451;47.988;7.842;2024-03-07T12:23:17;98583.34;;;10.43;91.78
929;BME280;451;47.988;7.842;2024-03-07T12:32:22;98569.97;;;11.24;86.91
929;BME280;451;47.988;7.842;2024-03-07T12:41:30;98561.50;;;10.42;87.64
929;BME280;451;47.988;7.842;2024-03-07T12:50:41;98555.84;;;11.70;84.25
929;BME280;451;47.988;7.842;2024-03-07T12:59:45;98552.69;;;11.52;88.58
929;BME280;451;47.988;7.842;2024-03-07T13:08:49;98552.91;;;11.74;87.92
929;BME280;451;47.988;7.842;2024-03-07T13:17:54;98551.78;;;11.91;85.95
929;BME280;451;47.988;7.842;2024-03-07T13:27:00;98543.59;;;12.08;85.89
929;BME280;451;47.988;7.842;2024-03-07T13:36:21;98544.59;;;11.85;84.96
929;BME280;451;47.988;7.842;2024-03-07T13:45:28;98524.69;;;12.20;85.10
929;BME280;451;47.988;7.842;2024-03-07T13:54:34;98518.25;;;12.22;81.82
929;BME280;451;47.988;7.842;2024-03-07T14:03:59;98521.09;;;12.35;81.18
929;BME280;451;47.988;7.842;2024-03-07T14:13:33;98519.63;;;11.19;78.48
929;BME280;451;47.988;7.842;2024-03-07T14:23:08;98507.09;;;11.29;80.51
929;BME280;451;47.988;7.842;2024-03-07T14:32:16;98505.03;;;11.16;78.21
929;BME280;451;47.988;7.842;2024-03-07T14:41:24;98495.81;;;10.81;81.62
929;BME280;451;47.988;7.842;2024-03-07T14:50:45;98482.38;;;11.07;78.90
929;BME280;451;47.988;7.842;2024-03-07T14:59:50;98477.28;;;11.06;80.18
929;BME280;451;47.988;7.842;2024-03-07T15:08:56;98484.84;;;11.09;77.03
929;BME280;451;47.988;7.842;2024-03-07T15:18:00;98477.94;;;10.69;78.80
929;BME280;451;47.988;7.842;2024-03-07T15:27:05;98432.50;;;10.60;78.60
929;BME280;451;47.988;7.842;2024-03-07T15:36:18;98413.78;;;10.55;81.35
929;BME280;451;47.988;7.842;2024-03-07T15:45:25;98457.50;;;10.48;81.92
929;BME280;451;47.988;7.842;2024-03-07T15:54:30;98443.88;;;10.83;79.60
929;BME280;451;47.988;7.842;2024-03-07T16:03:34;98439.25;;;10.55;83.13
929;BME280;451;47.988;7.842;2024-03-07T16:12:38;98413.50;;;10.42;88.57
929;BME280;451;47.988;7.842;2024-03-07T16:21:45;98439.19;;;9.99;94.50
929;BME280;451;47.988;7.842;2024-03-07T16:30:48;98444.34;;;9.60;77.54
929;BME280;451;47.988;7.842;2024-03-07T16:39:53;98446.94;;;9.44;71.09
929;BME280;451;47.988;7.842;2024-03-07T16:48:57;98450.41;;;9.28;68.42
929;BME280;451;47.988;7.842;2024-03-07T16:58:06;98453.97;;;9.19;69.01
929;BME280;451;47.988;7.842;2024-03-07T17:07:13;98413.53;;;8.64;68.46
929;BME280;451;47.988;7.842;2024-03-07T17:16:18;98461.72;;;8.71;67.13
929;BME280;451;47.988;7.842;2024-03-07T17:25:23;98453.78;;;8.46;67.79
929;BME280;451;47.988;7.842;2024-03-07T17:34:32;98458.38;;;8.53;68.34
929;BME280;451;47.988;7.842;2024-03-07T17:43:35;98460.94;;;8.44;71.76
929;BME280;451;47.988;7.842;2024-03-07T17:52:41;98445.13;;;8.28;71.79
929;BME280;451;47.988;7.842;2024-03-07T18:01:44;98460.16;;;8.18;74.17
929;BME280;451;47.988;7.842;2024-03-07T18:10:49;98458.72;;;7.98;75.23
929;BME280;451;47.988;7.842;2024-03-07T18:19:54;98428.50;;;7.16;75.95
929;BME280;451;47.988;7.842;2024-03-07T18:29:01;98444.59;;;6.94;78.53
929;BME280;451;47.988;7.842;2024-03-07T18:38:07;98431.94;;;6.54;82.24
929;BME280;451;47.988;7.842;2024-03-07T18:47:13;98424.19;;;6.35;82.60
929;BME280;451;47.988;7.842;2024-03-07T18:56:20;98422.91;;;6.12;83.67
929;BME280;451;47.988;7.842;2024-03-07T19:05:26;98408.28;;;5.91;85.00
929;BME280;451;47.988;7.842;2024-03-07T19:14:30;98404.56;;;5.84;86.50
929;BME280;451;47.988;7.842;2024-03-07T19:23:35;98396.47;;;5.78;85.97
929;BME280;451;47.988;7.842;2024-03-07T19:32:39;98402.31;;;5.52;96.58
929;BME280;451;47.988;7.842;2024-03-07T19:41:46;98404.66;;;5.07;100.00
929;BME280;451;47.988;7.842;2024-03-07T19:50:51;98409.56;;;4.62;100.00
929;BME280;451;47.988;7.842;2024-03-07T20:00:02;98389.88;;;4.79;100.00
929;BME280;451;47.988;7.842;2024-03-07T20:09:20;98395.00;;;4.40;100.00
929;BME280;451;47.988;7.842;2024-03-07T20:18:29;98370.81;;;4.10;100.00
929;BME280;451;47.988;7.842;2024-03-07T20:27:33;98366.91;;;3.94;100.00
929;BME280;451;47.988;7.842;2024-03-07T20:36:39;98372.69;;;3.68;100.00
929;BME280;451;47.988;7.842;2024-03-07T20:45:43;98369.22;;;3.57;100.00
929;BME280;451;47.988;7.842;2024-03-07T20:54:48;98371.56;;;3.40;100.00
929;BME280;451;47.988;7.842;2024-03-07T21:03:58;98355.34;;;3.27;100.00
929;BME280;451;47.988;7.842;2024-03-07T21:13:11;98344.09;;;3.37;100.00
929;BME280;451;47.988;7.842;2024-03-07T21:22:15;98326.63;;;3.18;100.00
929;BME280;451;47.988;7.842;2024-03-07T21:31:27;98346.38;;;3.31;100.00
929;BME280;451;47.988;7.842;2024-03-07T21:40:33;98324.84;;;2.98;100.00
929;BME280;451;47.988;7.842;2024-03-07T21:49:39;98330.19;;;3.06;100.00
929;BME280;451;47.988;7.842;2024-03-07T21:58:44;98315.78;;;2.93;100.00
929;BME280;451;47.988;7.842;2024-03-07T22:07:51;98246.75;;;2.69;100.00
929;BME280;451;47.988;7.842;2024-03-07T22:16:55;98294.75;;;2.96;100.00
929;BME280;451;47.988;7.842;2024-03-07T22:26:00;98276.66;;;2.84;100.00
929;BME280;451;47.988;7.842;2024-03-07T22:35:04;98290.34;;;2.87;100.00
929;BME280;451;47.988;7.842;2024-03-07T22:44:12;98273.66;;;2.89;100.00
929;BME280;451;47.988;7.842;2024-03-07T22:53:18;98266.25;;;2.84;100.00
929;BME280;451;47.988;7.842;2024-03-07T23:02:23;98191.88;;;2.32;100.00
929;BME280;451;47.988;7.842;2024-03-07T23:11:28;98259.06;;;2.67;100.00
929;BME280;451;47.988;7.842;2024-03-07T23:20:34;98149.53;;;1.90;100.00
929;BME280;451;47.988;7.842;2024-03-07T23:29:37;98240.47;;;2.51;100.00
929;BME280;451;47.988;7.842;2024-03-07T23:38:42;98138.13;;;1.93;100.00
929;BME280;451;47.988;7.842;2024-03-07T23:47:46;98241.03;;;2.34;100.00
929;BME280;451;47.988;7.842;2024-03-07T23:56:51;98241.13;;;2.12;100.00
